Time;durP1;ratioP1;P1;durP2;ratioP2;P2;SDS_P1;SDS_P2;PMS_P1;PMS_P2;Temp;Humidity;BMP_temperature;BMP_pressure;BME280_temperature;BME280_humidity;BME280_pressure;Samples;Min_cycle;Max_cycle;Signal;HPM_P1;HPM_P2
2023/01/29 00:00:50;;;;;;;;;;;6.00;99.90;;;;;;5092736;28;20052;-81
2023/01/29 00:03:16;;;;;;;;;;;6.00;99.90;;;;;;5093472;28;20333;-82
2023/01/29 00:05:41;;;;;;;;;;;6.00;99.90;;;;;;5092580;28;19947;-82
2023/01/29 00:08:07;;;;;;;;;;;6.00;99.90;;;;;;5092191;28;19920;-83
2023/01/29 00:10:32;;;;;;;;;;;6.00;99.90;;;;;;5092399;28;20030;-82
2023/01/29 00:12:58;;;;;;;;;;;6.10;99.90;;;;;;5091580;28;19919;-80
2023/01/29 00:15:23;;;;;;;;;;;6.00;99.90;;;;;;5092551;28;19912;-79
2023/01/29 00:17:49;;;;;;;;;;;6.00;99.90;;;;;;5091991;28;19916;-86
2023/01/29 00:20:15;;;;;;;;;;;6.00;99.90;;;;;;5092334;28;20368;-80
2023/01/29 00:22:40;;;;;;;;;;;6.00;99.90;;;;;;5092114;28;19930;-80
2023/01/29 00:25:06;;;;;;;;;;;6.00;99.90;;;;;;5091596;28;19961;-80
2023/01/29 00:27:32;;;;;;;;;;;6.00;99.90;;;;;;5092227;28;19971;-80
2023/01/29 00:30:13;;;;;;;;;;;6.00;99.90;;;;;;5091300;28;19931;-80
2023/01/29 00:32:39;;;;;;;;;;;6.00;99.90;;;;;;5092348;28;19957;-79
2023/01/29 00:35:05;;;;;;;;;;;6.00;99.90;;;;;;5091546;28;19919;-80
2023/01/29 00:37:31;;;;;;;;;;;6.00;99.90;;;;;;5092014;28;19951;-80
2023/01/29 00:39:57;;;;;;;;;;;6.00;99.90;;;;;;5091886;28;20022;-80
2023/01/29 00:45:07;;;;;;;;;;;6.10;99.90;;;;;;5091143;28;19934;-79
2023/01/29 00:47:32;;;;;;;;;;;6.10;99.90;;;;;;5092048;28;19912;-80
2023/01/29 00:49:59;;;;;;;;;;;6.10;99.90;;;;;;5091508;28;19916;-78
2023/01/29 00:52:25;;;;;;;;;;;6.10;99.90;;;;;;5091861;28;19912;-78
2023/01/29 00:54:54;;;;;;;;;;;6.10;99.90;;;;;;5092059;28;19919;-85
2023/01/29 00:57:20;;;;;;;;;;;6.10;99.90;;;;;;5091914;28;19908;-79
2023/01/29 00:59:46;;;;;;;;;;;6.10;99.90;;;;;;5091195;28;19908;-78
2023/01/29 01:04:56;;;;;;;;;;;6.10;99.90;;;;;;5091806;28;19919;-78
2023/01/29 01:07:22;;;;;;;;;;;6.10;99.90;;;;;;5092031;28;19923;-79
2023/01/29 01:12:32;;;;;;;;;;;6.10;99.90;;;;;;5091986;28;19923;-79
2023/01/29 01:14:57;;;;;;;;;;;6.10;99.90;;;;;;5091320;28;19912;-79
2023/01/29 01:17:23;;;;;;;;;;;6.10;99.90;;;;;;5092075;28;19908;-80
2023/01/29 01:19:49;;;;;;;;;;;6.10;99.90;;;;;;5091971;28;19915;-78
2023/01/29 01:22:15;;;;;;;;;;;6.20;99.90;;;;;;5091948;28;19930;-79
2023/01/29 01:24:40;;;;;;;;;;;6.10;99.90;;;;;;5091217;28;19919;-79
2023/01/29 01:27:06;;;;;;;;;;;6.10;99.90;;;;;;5091655;28;19908;-80
2023/01/29 01:29:31;;;;;;;;;;;6.10;99.90;;;;;;5091580;28;19919;-79
2023/01/29 01:31:58;;;;;;;;;;;6.10;99.90;;;;;;5089291;28;19919;-79
2023/01/29 01:34:25;;;;;;;;;;;6.10;99.90;;;;;;5091749;28;19912;-80
2023/01/29 01:36:51;;;;;;;;;;;6.00;99.90;;;;;;5090211;28;19955;-85
2023/01/29 01:39:17;;;;;;;;;;;6.10;99.90;;;;;;5091363;28;19908;-79
2023/01/29 01:41:42;;;;;;;;;;;6.00;99.90;;;;;;5089798;28;19915;-78
2023/01/29 01:44:28;;;;;;;;;;;6.10;99.90;;;;;;5090769;28;19908;-80
2023/01/29 01:46:54;;;;;;;;;;;6.00;99.90;;;;;;5091439;28;19915;-87
2023/01/29 01:49:20;;;;;;;;;;;6.10;99.90;;;;;;5091237;28;19908;-78
2023/01/29 01:51:47;;;;;;;;;;;6.10;99.90;;;;;;5091128;28;19912;-78
2023/01/29 01:54:17;;;;;;;;;;;6.10;99.90;;;;;;5090635;28;20139;-78
2023/01/29 01:56:46;;;;;;;;;;;6.10;99.90;;;;;;5090949;28;20394;-79
2023/01/29 01:59:13;;;;;;;;;;;6.10;99.90;;;;;;5090706;28;19927;-78
2023/01/29 02:01:41;;;;;;;;;;;6.10;99.90;;;;;;5091436;28;20031;-79
2023/01/29 02:09:51;;;;;;;;;;;6.10;99.90;;;;;;5090881;28;19920;-80
2023/01/29 02:12:18;;;;;;;;;;;6.00;99.90;;;;;;5090764;28;19911;-79
2023/01/29 02:14:44;;;;;;;;;;;6.00;99.90;;;;;;5091102;28;19977;-80
2023/01/29 02:17:11;;;;;;;;;;;5.90;99.90;;;;;;5090284;28;20408;-79
2023/01/29 02:19:48;;;;;;;;;;;6.00;99.90;;;;;;5091565;28;19908;-79
2023/01/29 02:22:28;;;;;;;;;;;6.00;99.90;;;;;;5090669;28;20034;-79
2023/01/29 02:24:56;;;;;;;;;;;5.90;99.90;;;;;;5091451;28;19943;-79
2023/01/29 02:27:41;;;;;;;;;;;5.90;99.90;;;;;;5091764;28;19912;-79
2023/01/29 02:30:06;;;;;;;;;;;5.90;99.90;;;;;;5090612;28;19954;-79
2023/01/29 02:32:57;;;;;;;;;;;5.90;99.90;;;;;;5090805;28;20314;-81
2023/01/29 02:35:32;;;;;;;;;;;5.90;99.90;;;;;;5093139;28;19912;-79
2023/01/29 02:38:16;;;;;;;;;;;5.90;99.90;;;;;;5094817;28;20281;-88
2023/01/29 02:40:44;;;;;;;;;;;5.90;99.90;;;;;;5095322;28;19916;-79
2023/01/29 02:43:12;;;;;;;;;;;5.90;99.90;;;;;;5094211;28;19911;-79
2023/01/29 02:45:51;;;;;;;;;;;5.90;99.90;;;;;;5094803;28;19998;-79
2023/01/29 02:48:22;;;;;;;;;;;5.90;99.90;;;;;;5094495;28;20012;-79
2023/01/29 02:51:06;;;;;;;;;;;5.90;99.90;;;;;;5094660;28;19918;-78
2023/01/29 02:53:34;;;;;;;;;;;5.90;99.90;;;;;;5094816;28;19916;-79
2023/01/29 02:56:11;;;;;;;;;;;5.90;99.90;;;;;;5094492;28;20374;-79
2023/01/29 02:58:41;;;;;;;;;;;5.90;99.90;;;;;;5094436;28;19957;-78
2023/01/29 03:01:18;;;;;;;;;;;5.90;99.90;;;;;;5092547;28;19973;-79
2023/01/29 03:03:46;;;;;;;;;;;5.80;99.90;;;;;;5094776;28;19939;-79
2023/01/29 03:06:18;;;;;;;;;;;5.80;99.90;;;;;;5094242;28;19923;-79
2023/01/29 03:08:53;;;;;;;;;;;5.80;99.90;;;;;;5094430;28;19920;-79
2023/01/29 03:11:19;;;;;;;;;;;5.80;99.90;;;;;;5094173;28;19973;-79
2023/01/29 03:13:52;;;;;;;;;;;5.80;99.90;;;;;;5093976;28;19916;-79
2023/01/29 03:16:21;;;;;;;;;;;5.80;99.90;;;;;;5094349;28;19961;-79
2023/01/29 03:18:55;;;;;;;;;;;5.80;99.90;;;;;;5094405;28;19952;-79
2023/01/29 03:21:50;;;;;;;;;;;5.70;99.90;;;;;;5094369;28;19991;-79
2023/01/29 03:32:43;;;;;;;;;;;5.70;99.90;;;;;;5093973;28;20001;-79
2023/01/29 03:35:10;;;;;;;;;;;5.70;99.90;;;;;;5092319;28;19912;-80
2023/01/29 03:37:39;;;;;;;;;;;5.60;99.90;;;;;;5094020;28;20025;-80
2023/01/29 03:40:05;;;;;;;;;;;5.60;99.90;;;;;;5093637;28;19999;-80
2023/01/29 03:42:37;;;;;;;;;;;5.60;99.90;;;;;;5093833;28;19912;-79
2023/01/29 03:45:07;;;;;;;;;;;5.60;99.90;;;;;;5093543;28;20046;-88
2023/01/29 03:47:45;;;;;;;;;;;5.70;99.90;;;;;;5092951;28;20082;-79
2023/01/29 03:50:20;;;;;;;;;;;5.60;99.90;;;;;;5093310;28;20068;-79
2023/01/29 03:52:54;;;;;;;;;;;5.70;99.90;;;;;;5093433;28;19912;-79
2023/01/29 03:55:23;;;;;;;;;;;5.70;99.90;;;;;;5093126;28;19946;-80
2023/01/29 03:57:54;;;;;;;;;;;5.70;99.90;;;;;;5093847;28;19909;-79
2023/01/29 04:00:22;;;;;;;;;;;5.70;99.90;;;;;;5092743;28;19908;-80
2023/01/29 04:03:08;;;;;;;;;;;5.70;99.90;;;;;;5093285;28;20000;-79
2023/01/29 04:06:04;;;;;;;;;;;5.70;99.90;;;;;;5093554;28;19908;-79
2023/01/29 04:08:32;;;;;;;;;;;5.60;99.90;;;;;;5092972;28;19920;-79
2023/01/29 04:10:59;;;;;;;;;;;5.60;99.90;;;;;;5093207;28;19908;-79
2023/01/29 04:13:25;;;;;;;;;;;5.60;99.90;;;;;;5091600;28;20640;-79
2023/01/29 04:15:58;;;;;;;;;;;5.60;99.90;;;;;;5091974;28;20227;-79
2023/01/29 04:18:24;;;;;;;;;;;5.60;99.90;;;;;;5091401;28;20009;-79
2023/01/29 04:20:50;;;;;;;;;;;5.60;99.90;;;;;;5093295;28;20023;-79
2023/01/29 04:23:22;;;;;;;;;;;5.60;99.90;;;;;;5092906;28;19915;-79
2023/01/29 04:25:52;;;;;;;;;;;5.60;99.90;;;;;;5093450;28;19908;-79
2023/01/29 04:28:20;;;;;;;;;;;5.50;99.90;;;;;;5093295;28;19916;-79
2023/01/29 04:30:58;;;;;;;;;;;5.50;99.90;;;;;;5092790;28;19915;-79
2023/01/29 04:33:53;;;;;;;;;;;5.50;99.90;;;;;;5092339;28;19964;-76
2023/01/29 04:36:32;;;;;;;;;;;5.50;99.90;;;;;;5082965;28;20007;-78
2023/01/29 04:38:58;;;;;;;;;;;5.50;99.90;;;;;;5092344;28;19914;-78
2023/01/29 04:41:30;;;;;;;;;;;5.50;99.90;;;;;;5091865;28;19909;-78
2023/01/29 04:44:22;;;;;;;;;;;5.40;99.90;;;;;;5092195;28;19908;-78
2023/01/29 04:46:56;;;;;;;;;;;5.40;99.90;;;;;;5089850;28;19908;-78
2023/01/29 04:49:25;;;;;;;;;;;5.30;99.90;;;;;;5091704;28;20116;-78
2023/01/29 04:51:51;;;;;;;;;;;5.30;99.90;;;;;;5092106;28;19912;-79
2023/01/29 04:54:46;;;;;;;;;;;5.30;99.90;;;;;;5091806;28;19973;-79
2023/01/29 04:57:24;;;;;;;;;;;5.30;99.90;;;;;;5081903;28;19908;-79
2023/01/29 04:59:54;;;;;;;;;;;5.30;99.90;;;;;;5091356;28;19915;-78
2023/01/29 05:02:21;;;;;;;;;;;5.20;99.90;;;;;;5091295;28;20405;-78
2023/01/29 05:04:47;;;;;;;;;;;5.20;99.90;;;;;;5092293;28;19908;-78
2023/01/29 05:07:13;;;;;;;;;;;5.20;99.90;;;;;;5091293;28;19908;-78
2023/01/29 05:09:41;;;;;;;;;;;5.20;99.90;;;;;;5092106;28;19915;-78
2023/01/29 05:12:09;;;;;;;;;;;5.20;99.90;;;;;;5091546;28;19970;-86
2023/01/29 05:14:36;;;;;;;;;;;5.20;99.90;;;;;;5092142;28;19973;-78
2023/01/29 05:17:04;;;;;;;;;;;5.20;99.90;;;;;;5092270;28;19912;-78
2023/01/29 05:19:29;;;;;;;;;;;5.30;99.90;;;;;;5091333;28;19948;-78
2023/01/29 05:21:56;;;;;;;;;;;5.20;99.90;;;;;;5090420;28;20027;-78
2023/01/29 05:24:23;;;;;;;;;;;5.30;99.90;;;;;;5091216;28;19908;-78
2023/01/29 05:29:34;;;;;;;;;;;5.30;99.90;;;;;;5091597;28;19961;-79
2023/01/29 05:32:00;;;;;;;;;;;5.30;99.90;;;;;;5091820;28;19920;-79
2023/01/29 05:34:25;;;;;;;;;;;5.30;99.90;;;;;;5091336;28;20072;-79
2023/01/29 05:36:51;;;;;;;;;;;5.30;99.90;;;;;;5091816;28;19912;-79
2023/01/29 05:39:17;;;;;;;;;;;5.40;99.90;;;;;;5091339;28;19931;-79
2023/01/29 05:41:42;;;;;;;;;;;5.40;99.90;;;;;;5091761;28;19959;-79
2023/01/29 05:44:11;;;;;;;;;;;5.40;99.90;;;;;;5091484;28;20340;-79
2023/01/29 05:46:37;;;;;;;;;;;5.50;99.90;;;;;;5091208;28;19908;-79
2023/01/29 05:49:03;;;;;;;;;;;5.50;99.90;;;;;;5091650;28;20334;-79
2023/01/29 05:51:28;;;;;;;;;;;5.50;99.90;;;;;;5090745;28;20277;-79
2023/01/29 05:53:54;;;;;;;;;;;5.60;99.90;;;;;;5091235;28;19916;-79
2023/01/29 05:56:19;;;;;;;;;;;5.60;99.90;;;;;;5090773;28;19953;-79
2023/01/29 05:58:45;;;;;;;;;;;5.60;99.90;;;;;;5091320;28;19908;-78
2023/01/29 06:01:12;;;;;;;;;;;5.70;99.90;;;;;;5089644;28;20378;-87
2023/01/29 06:03:37;;;;;;;;;;;5.70;99.90;;;;;;5090802;28;19985;-79
2023/01/29 06:06:03;;;;;;;;;;;5.70;99.90;;;;;;5091056;28;19954;-78
2023/01/29 06:08:29;;;;;;;;;;;5.70;99.90;;;;;;5090432;28;20222;-79
2023/01/29 06:10:54;;;;;;;;;;;5.70;99.90;;;;;;5090746;28;20335;-79
2023/01/29 06:13:20;;;;;;;;;;;5.70;99.90;;;;;;5090547;28;20361;-80
2023/01/29 06:15:45;;;;;;;;;;;5.70;99.90;;;;;;5091205;28;20288;-80
2023/01/29 06:18:11;;;;;;;;;;;5.70;99.90;;;;;;5090775;28;19986;-80
2023/01/29 06:20:37;;;;;;;;;;;5.70;99.90;;;;;;5090656;28;19912;-79
2023/01/29 06:23:02;;;;;;;;;;;5.70;99.90;;;;;;5091096;28;19908;-79
2023/01/29 06:25:28;;;;;;;;;;;5.70;99.90;;;;;;5090367;28;19909;-79
2023/01/29 06:27:53;;;;;;;;;;;5.70;99.90;;;;;;5089625;28;19915;-79
2023/01/29 06:30:19;;;;;;;;;;;5.70;99.90;;;;;;5090643;28;19916;-79
2023/01/29 06:32:44;;;;;;;;;;;5.70;99.90;;;;;;5091136;28;19912;-79
2023/01/29 06:35:10;;;;;;;;;;;5.70;99.90;;;;;;5091028;28;19912;-79
2023/01/29 06:37:36;;;;;;;;;;;5.70;99.90;;;;;;5090196;28;20010;-79
2023/01/29 06:40:02;;;;;;;;;;;5.70;99.90;;;;;;5089479;28;19959;-79
2023/01/29 06:42:27;;;;;;;;;;;5.70;99.90;;;;;;5090123;28;20011;-80
2023/01/29 06:44:53;;;;;;;;;;;5.70;99.90;;;;;;5090813;28;20004;-80
2023/01/29 06:47:19;;;;;;;;;;;5.70;99.90;;;;;;5090662;28;20086;-80
2023/01/29 06:49:45;;;;;;;;;;;5.70;99.90;;;;;;5090701;28;20041;-79
2023/01/29 06:52:10;;;;;;;;;;;5.70;99.90;;;;;;5091137;28;19912;-79
2023/01/29 06:54:36;;;;;;;;;;;5.70;99.90;;;;;;5089971;28;20657;-79
2023/01/29 06:57:01;;;;;;;;;;;5.80;99.90;;;;;;5090776;28;19912;-79
2023/01/29 06:59:27;;;;;;;;;;;5.80;99.90;;;;;;5090172;28;19908;-80
2023/01/29 07:01:52;;;;;;;;;;;5.80;99.90;;;;;;5091000;28;19916;-79
2023/01/29 07:04:18;;;;;;;;;;;5.80;99.90;;;;;;5090051;28;19999;-82
2023/01/29 07:06:43;;;;;;;;;;;5.80;99.90;;;;;;5090949;28;19908;-79
2023/01/29 07:09:11;;;;;;;;;;;5.80;99.90;;;;;;5090923;28;19920;-79
2023/01/29 07:11:36;;;;;;;;;;;5.90;99.90;;;;;;5090312;28;19947;-79
2023/01/29 07:14:02;;;;;;;;;;;5.80;99.90;;;;;;5090883;28;19966;-78
2023/01/29 07:16:28;;;;;;;;;;;5.90;99.90;;;;;;5090041;28;20348;-79
2023/01/29 07:18:53;;;;;;;;;;;5.90;99.90;;;;;;5090611;28;20005;-78
2023/01/29 07:21:19;;;;;;;;;;;5.90;99.90;;;;;;5090105;28;19997;-82
2023/01/29 07:23:44;;;;;;;;;;;5.90;99.90;;;;;;5093717;28;20321;-77
2023/01/29 07:26:10;;;;;;;;;;;5.90;99.90;;;;;;5094085;28;19908;-79
2023/01/29 07:28:37;;;;;;;;;;;5.90;99.90;;;;;;5093421;28;19923;-77
2023/01/29 07:31:03;;;;;;;;;;;5.90;99.90;;;;;;5093806;28;19920;-78
2023/01/29 07:33:28;;;;;;;;;;;5.90;99.90;;;;;;5093088;28;19916;-79
2023/01/29 07:35:54;;;;;;;;;;;5.90;99.90;;;;;;5093999;28;19912;-78
2023/01/29 07:38:19;;;;;;;;;;;5.90;99.90;;;;;;5093390;28;20397;-87
2023/01/29 07:40:45;;;;;;;;;;;5.90;99.90;;;;;;5094108;28;19953;-78
2023/01/29 07:43:11;;;;;;;;;;;5.90;99.90;;;;;;5093864;28;19915;-79
2023/01/29 07:45:37;;;;;;;;;;;5.90;99.90;;;;;;5093622;28;19938;-79
2023/01/29 07:48:06;;;;;;;;;;;5.90;99.90;;;;;;5094132;28;19954;-79
2023/01/29 07:50:32;;;;;;;;;;;5.90;99.90;;;;;;5093447;28;20591;-79
2023/01/29 07:52:58;;;;;;;;;;;5.90;99.90;;;;;;5093734;28;19916;-79
2023/01/29 07:55:24;;;;;;;;;;;5.90;99.90;;;;;;5093703;28;19981;-79
2023/01/29 07:57:59;;;;;;;;;;;5.90;99.90;;;;;;5094637;28;20030;-79
2023/01/29 08:00:25;;;;;;;;;;;6.00;99.90;;;;;;5094140;28;19908;-80
2023/01/29 08:02:50;;;;;;;;;;;6.00;99.90;;;;;;5094325;28;19931;-79
2023/01/29 08:05:16;;;;;;;;;;;6.00;99.90;;;;;;5093935;28;19908;-79
2023/01/29 08:07:42;;;;;;;;;;;6.00;99.90;;;;;;5093037;28;20295;-78
2023/01/29 08:10:08;;;;;;;;;;;6.00;99.90;;;;;;5093757;28;19993;-79
2023/01/29 08:12:33;;;;;;;;;;;6.10;99.90;;;;;;5092907;28;20006;-78
2023/01/29 08:14:59;;;;;;;;;;;6.10;99.90;;;;;;5093521;28;19912;-79
2023/01/29 08:17:24;;;;;;;;;;;6.10;99.90;;;;;;5092985;28;20242;-79
2023/01/29 08:19:50;;;;;;;;;;;6.10;99.90;;;;;;5093252;28;19915;-79
2023/01/29 08:22:15;;;;;;;;;;;6.20;99.90;;;;;;5092866;28;19909;-78
2023/01/29 08:24:41;;;;;;;;;;;6.10;99.90;;;;;;5090996;28;19955;-79
2023/01/29 08:27:07;;;;;;;;;;;6.10;99.90;;;;;;5093085;28;20021;-78
2023/01/29 08:29:32;;;;;;;;;;;6.20;99.90;;;;;;5092035;28;19951;-78
2023/01/29 08:31:59;;;;;;;;;;;6.20;99.90;;;;;;5093090;28;19919;-78
2023/01/29 08:34:25;;;;;;;;;;;6.20;99.90;;;;;;5092215;28;19912;-79
2023/01/29 08:36:52;;;;;;;;;;;6.20;99.90;;;;;;5074520;28;20011;-78
2023/01/29 08:39:17;;;;;;;;;;;6.20;99.90;;;;;;5092931;28;19908;-79
2023/01/29 08:41:43;;;;;;;;;;;6.30;99.90;;;;;;5091869;28;19904;-78
2023/01/29 08:44:09;;;;;;;;;;;6.30;99.90;;;;;;5090828;28;20357;-78
2023/01/29 08:46:34;;;;;;;;;;;6.30;99.90;;;;;;5092111;28;19995;-79
2023/01/29 08:49:00;;;;;;;;;;;6.30;99.90;;;;;;5092587;28;19908;-79
2023/01/29 08:51:25;;;;;;;;;;;6.40;99.90;;;;;;5091523;28;19908;-80
2023/01/29 08:53:51;;;;;;;;;;;6.40;99.90;;;;;;5092486;28;19912;-78
2023/01/29 08:56:17;;;;;;;;;;;6.40;99.90;;;;;;5091970;28;19957;-78
2023/01/29 08:58:43;;;;;;;;;;;6.40;99.90;;;;;;5091807;28;20681;-77
2023/01/29 09:01:09;;;;;;;;;;;6.40;99.90;;;;;;5092171;28;19931;-78
2023/01/29 09:03:35;;;;;;;;;;;6.40;99.90;;;;;;5091885;28;19915;-78
2023/01/29 09:06:01;;;;;;;;;;;6.50;99.90;;;;;;5090272;28;19908;-79
2023/01/29 09:08:26;;;;;;;;;;;6.50;99.90;;;;;;5090982;28;19920;-85
2023/01/29 09:10:52;;;;;;;;;;;6.50;99.90;;;;;;5091799;28;19924;-78
2023/01/29 09:13:18;;;;;;;;;;;6.50;99.90;;;;;;5090471;28;20262;-78
2023/01/29 09:15:43;;;;;;;;;;;6.50;99.90;;;;;;5091212;28;20871;-79
2023/01/29 09:18:09;;;;;;;;;;;6.50;99.90;;;;;;5091529;28;19915;-77
2023/01/29 09:20:37;;;;;;;;;;;6.60;99.90;;;;;;5091153;28;20356;-79
2023/01/29 09:23:06;;;;;;;;;;;6.60;99.90;;;;;;5091630;28;20003;-79
2023/01/29 09:25:31;;;;;;;;;;;6.60;99.90;;;;;;5089762;28;20000;-79
2023/01/29 09:27:57;;;;;;;;;;;6.60;99.90;;;;;;5091377;28;19974;-79
2023/01/29 09:30:22;;;;;;;;;;;6.70;99.90;;;;;;5091379;28;19908;-79
2023/01/29 09:32:48;;;;;;;;;;;6.70;99.90;;;;;;5090600;28;20331;-79
2023/01/29 09:35:14;;;;;;;;;;;6.70;99.90;;;;;;5091584;28;19912;-80
2023/01/29 09:37:39;;;;;;;;;;;6.70;99.90;;;;;;5090556;28;19914;-79
2023/01/29 09:40:05;;;;;;;;;;;6.80;99.90;;;;;;5091096;28;20229;-79
2023/01/29 09:42:42;;;;;;;;;;;6.80;99.90;;;;;;5090388;28;19965;-79
2023/01/29 09:45:33;;;;;;;;;;;6.80;99.90;;;;;;5085283;28;19969;-78
2023/01/29 09:48:01;;;;;;;;;;;6.80;99.90;;;;;;5088825;28;20254;-79
2023/01/29 09:50:32;;;;;;;;;;;6.80;99.90;;;;;;5091152;28;19908;-86
2023/01/29 09:53:02;;;;;;;;;;;6.80;99.90;;;;;;5091259;28;19912;-79
2023/01/29 09:55:35;;;;;;;;;;;6.80;99.90;;;;;;5091700;28;19916;-87
2023/01/29 09:58:10;;;;;;;;;;;6.80;99.90;;;;;;5091549;28;19914;-78
2023/01/29 10:00:56;;;;;;;;;;;6.90;99.90;;;;;;5090524;28;19914;-80
2023/01/29 10:03:41;;;;;;;;;;;6.80;99.90;;;;;;5083623;28;20303;-80
2023/01/29 10:06:25;;;;;;;;;;;6.80;99.90;;;;;;5091475;28;19908;-79
2023/01/29 10:09:08;;;;;;;;;;;6.80;99.90;;;;;;5090531;28;19920;-79
2023/01/29 10:11:43;;;;;;;;;;;6.90;99.90;;;;;;5090324;28;20285;-80
2023/01/29 10:14:18;;;;;;;;;;;6.80;99.90;;;;;;5090735;28;20024;-80
2023/01/29 10:16:46;;;;;;;;;;;6.90;99.90;;;;;;5090221;28;19915;-79
2023/01/29 10:19:20;;;;;;;;;;;6.90;99.90;;;;;;5091061;28;19919;-78
2023/01/29 10:22:01;;;;;;;;;;;6.90;99.90;;;;;;5090316;28;19968;-79
2023/01/29 10:24:32;;;;;;;;;;;7.00;99.90;;;;;;5091108;28;20369;-78
2023/01/29 10:26:58;;;;;;;;;;;7.00;99.90;;;;;;5090975;28;19924;-78
2023/01/29 10:29:25;;;;;;;;;;;7.00;99.90;;;;;;5091097;28;19991;-78
2023/01/29 10:31:53;;;;;;;;;;;7.00;99.90;;;;;;5090571;28;20215;-78
2023/01/29 10:34:26;;;;;;;;;;;7.00;99.90;;;;;;5091139;28;19965;-76
2023/01/29 10:36:53;;;;;;;;;;;7.00;99.90;;;;;;5090573;28;20007;-77
2023/01/29 10:39:19;;;;;;;;;;;7.00;99.90;;;;;;5091579;28;19916;-78
2023/01/29 10:42:00;;;;;;;;;;;7.10;99.90;;;;;;5090514;28;19908;-78
2023/01/29 10:44:44;;;;;;;;;;;7.20;99.90;;;;;;5091438;28;20268;-78
2023/01/29 10:47:25;;;;;;;;;;;7.20;99.90;;;;;;5090868;28;19915;-76
2023/01/29 10:49:50;;;;;;;;;;;7.20;99.90;;;;;;5091059;28;20016;-77
2023/01/29 10:52:19;;;;;;;;;;;7.20;99.90;;;;;;5091245;28;19982;-76
2023/01/29 10:54:53;;;;;;;;;;;7.20;99.90;;;;;;5090949;28;19965;-76
2023/01/29 10:57:25;;;;;;;;;;;7.30;99.90;;;;;;5093137;28;20073;-78
2023/01/29 10:59:59;;;;;;;;;;;7.30;99.90;;;;;;5094605;28;19919;-77
2023/01/29 11:02:25;;;;;;;;;;;7.30;99.90;;;;;;5095129;28;19954;-77
2023/01/29 11:04:51;;;;;;;;;;;7.40;99.90;;;;;;5094445;28;19912;-77
2023/01/29 11:07:18;;;;;;;;;;;7.40;99.90;;;;;;5094959;28;19908;-78
2023/01/29 11:09:46;;;;;;;;;;;7.40;99.90;;;;;;5094610;28;19909;-78
2023/01/29 11:12:14;;;;;;;;;;;7.40;99.90;;;;;;5094637;28;20019;-77
2023/01/29 11:14:39;;;;;;;;;;;7.40;99.90;;;;;;5094143;28;19965;-77
2023/01/29 11:17:05;;;;;;;;;;;7.40;99.90;;;;;;5094353;28;19908;-77
2023/01/29 11:19:38;;;;;;;;;;;7.40;99.90;;;;;;5094654;28;20314;-77
2023/01/29 11:22:03;;;;;;;;;;;7.50;99.90;;;;;;5094254;28;19908;-77
2023/01/29 11:24:29;;;;;;;;;;;7.40;99.90;;;;;;5094494;28;19914;-77
2023/01/29 11:26:56;;;;;;;;;;;7.50;99.90;;;;;;5093624;28;19948;-77
2023/01/29 11:29:30;;;;;;;;;;;7.50;99.90;;;;;;5094152;28;19912;-78
2023/01/29 11:31:56;;;;;;;;;;;7.60;99.90;;;;;;5094438;28;19919;-78
2023/01/29 11:34:24;;;;;;;;;;;7.60;99.90;;;;;;5094410;28;19998;-77
2023/01/29 11:36:59;;;;;;;;;;;7.70;99.90;;;;;;5076040;28;19975;-78
2023/01/29 11:39:26;;;;;;;;;;;7.70;99.90;;;;;;5094231;28;19930;-78
2023/01/29 11:41:58;;;;;;;;;;;7.70;99.90;;;;;;5093765;28;20377;-77
2023/01/29 11:44:28;;;;;;;;;;;7.80;99.90;;;;;;5094284;28;19908;-77
2023/01/29 11:46:54;;;;;;;;;;;7.80;99.90;;;;;;5093677;28;19909;-77
2023/01/29 11:49:22;;;;;;;;;;;7.90;99.90;;;;;;5094023;28;19908;-78
2023/01/29 11:51:52;;;;;;;;;;;7.90;99.90;;;;;;5093640;28;20333;-78
2023/01/29 11:54:19;;;;;;;;;;;8.00;99.90;;;;;;5094085;28;19976;-78
2023/01/29 11:56:45;;;;;;;;;;;8.10;99.90;;;;;;5093595;28;19915;-78
2023/01/29 11:59:35;;;;;;;;;;;8.10;99.90;;;;;;5093788;28;19916;-78
2023/01/29 12:02:13;;;;;;;;;;;8.20;99.90;;;;;;5087064;28;19974;-77
2023/01/29 12:04:39;;;;;;;;;;;8.20;99.90;;;;;;5092742;28;19908;-81
2023/01/29 12:07:10;;;;;;;;;;;8.30;99.90;;;;;;5092907;28;19908;-77
2023/01/29 12:09:38;;;;;;;;;;;8.40;99.90;;;;;;5093700;28;19942;-78
2023/01/29 12:12:22;;;;;;;;;;;8.40;99.90;;;;;;5093101;28;20014;-77
2023/01/29 12:15:00;;;;;;;;;;;8.40;99.90;;;;;;5093503;28;20365;-77
2023/01/29 12:17:29;;;;;;;;;;;8.50;99.90;;;;;;5091731;28;20014;-77
2023/01/29 12:19:58;;;;;;;;;;;8.50;99.90;;;;;;5093574;28;19927;-78
2023/01/29 12:22:42;;;;;;;;;;;8.60;99.90;;;;;;5093458;28;19953;-77
2023/01/29 12:25:17;;;;;;;;;;;8.70;99.90;;;;;;5093519;28;19999;-78
2023/01/29 12:27:50;;;;;;;;;;;8.70;99.90;;;;;;5093058;28;19990;-78
2023/01/29 12:30:19;;;;;;;;;;;8.80;99.90;;;;;;5093123;28;19908;-78
2023/01/29 12:32:45;;;;;;;;;;;8.80;99.90;;;;;;5093288;28;19911;-78
2023/01/29 12:35:15;;;;;;;;;;;8.80;99.90;;;;;;5093315;28;20002;-78
2023/01/29 12:37:43;;;;;;;;;;;8.90;99.90;;;;;;5093009;28;19999;-81
2023/01/29 12:40:16;;;;;;;;;;;8.90;99.90;;;;;;5093291;28;20372;-77
2023/01/29 12:42:44;;;;;;;;;;;9.00;99.90;;;;;;5093360;28;19908;-80
2023/01/29 12:45:15;;;;;;;;;;;9.00;99.90;;;;;;5092870;28;20012;-78
2023/01/29 12:47:42;;;;;;;;;;;9.10;99.90;;;;;;5093498;28;19958;-84
2023/01/29 12:50:23;;;;;;;;;;;9.20;99.90;;;;;;5092721;28;19915;-76
2023/01/29 12:52:51;;;;;;;;;;;9.30;99.90;;;;;;5092172;28;19912;-79
2023/01/29 12:55:19;;;;;;;;;;;9.30;99.90;;;;;;5093233;28;19976;-79
2023/01/29 12:57:44;;;;;;;;;;;9.40;99.90;;;;;;5092532;28;19908;-78
2023/01/29 13:00:17;;;;;;;;;;;9.40;99.90;;;;;;5092313;28;19908;-78
2023/01/29 13:02:53;;;;;;;;;;;9.50;99.90;;;;;;5090818;28;19934;-82
2023/01/29 13:05:27;;;;;;;;;;;9.50;99.90;;;;;;5092504;28;19908;-78
2023/01/29 13:07:56;;;;;;;;;;;9.60;99.90;;;;;;5092024;28;19927;-79
2023/01/29 13:10:29;;;;;;;;;;;9.70;99.90;;;;;;5093066;28;19908;-78
2023/01/29 13:13:02;;;;;;;;;;;9.70;99.90;;;;;;5092696;28;20031;-77
2023/01/29 13:15:33;;;;;;;;;;;9.70;99.90;;;;;;5092984;28;20146;-77
2023/01/29 13:18:11;;;;;;;;;;;9.80;99.90;;;;;;5093392;28;20055;-78
2023/01/29 13:20:37;;;;;;;;;;;9.70;99.90;;;;;;5092959;28;19944;-77
2023/01/29 13:23:20;;;;;;;;;;;9.80;99.90;;;;;;5094724;28;20482;-77
2023/01/29 13:25:48;;;;;;;;;;;9.80;99.90;;;;;;5093704;28;20004;-79
2023/01/29 13:28:16;;;;;;;;;;;9.80;99.90;;;;;;5094910;28;19918;-77
2023/01/29 13:30:41;;;;;;;;;;;9.80;99.90;;;;;;5093007;28;20011;-79
2023/01/29 13:33:09;;;;;;;;;;;9.80;99.90;;;;;;5094132;28;19912;-77
2023/01/29 13:35:37;;;;;;;;;;;9.80;99.90;;;;;;5093251;28;19965;-78
2023/01/29 13:38:03;;;;;;;;;;;9.80;99.90;;;;;;5094308;28;19912;-78
2023/01/29 13:40:30;;;;;;;;;;;9.90;99.90;;;;;;5093346;28;20302;-78
2023/01/29 13:42:56;;;;;;;;;;;10.00;99.90;;;;;;5094313;28;20333;-77
2023/01/29 13:45:29;;;;;;;;;;;10.00;99.90;;;;;;5094950;28;20315;-77
2023/01/29 13:48:07;;;;;;;;;;;10.10;99.90;;;;;;5091567;28;19953;-78
2023/01/29 13:50:37;;;;;;;;;;;10.10;99.90;;;;;;5094943;28;20025;-78
2023/01/29 13:53:03;;;;;;;;;;;10.20;99.90;;;;;;5092783;28;19915;-78
2023/01/29 13:55:36;;;;;;;;;;;10.20;99.90;;;;;;5094514;28;19918;-77
2023/01/29 13:58:03;;;;;;;;;;;10.20;99.90;;;;;;5093439;28;19935;-78
2023/01/29 14:00:34;;;;;;;;;;;10.30;99.90;;;;;;5095294;28;20045;-78
2023/01/29 14:03:00;;;;;;;;;;;10.40;99.90;;;;;;5091652;28;19908;-79
2023/01/29 14:05:28;;;;;;;;;;;10.40;99.90;;;;;;5091260;28;19914;-78
2023/01/29 14:08:00;;;;;;;;;;;10.40;99.90;;;;;;5091074;28;19962;-78
2023/01/29 14:10:27;;;;;;;;;;;10.40;99.90;;;;;;5092701;28;20345;-78
2023/01/29 14:13:13;;;;;;;;;;;10.40;99.90;;;;;;5090916;28;19916;-78
2023/01/29 14:15:39;;;;;;;;;;;10.40;99.90;;;;;;5083707;28;20311;-78
2023/01/29 14:18:07;;;;;;;;;;;10.40;99.90;;;;;;5092175;28;19912;-79
2023/01/29 14:20:36;;;;;;;;;;;10.40;99.90;;;;;;5092069;28;19963;-78
2023/01/29 14:23:03;;;;;;;;;;;10.50;99.90;;;;;;5091716;28;20025;-78
2023/01/29 14:25:33;;;;;;;;;;;10.50;99.90;;;;;;5093546;28;19920;-78
2023/01/29 14:28:00;;;;;;;;;;;10.50;99.90;;;;;;5090984;28;20289;-78
2023/01/29 14:30:28;;;;;;;;;;;10.60;99.90;;;;;;5092264;28;20315;-77
2023/01/29 14:32:54;;;;;;;;;;;10.60;99.90;;;;;;5095772;28;19912;-78
2023/01/29 14:35:24;;;;;;;;;;;10.60;99.90;;;;;;5095713;28;19919;-78
2023/01/29 14:37:51;;;;;;;;;;;10.60;99.90;;;;;;5095398;28;19908;-84
2023/01/29 14:40:17;;;;;;;;;;;10.50;99.90;;;;;;5095633;28;19922;-77
2023/01/29 14:43:03;;;;;;;;;;;10.50;99.90;;;;;;5095051;28;19908;-77
2023/01/29 14:45:32;;;;;;;;;;;10.50;99.90;;;;;;5095437;28;19961;-78
2023/01/29 14:48:02;;;;;;;;;;;10.40;99.90;;;;;;5094718;28;19911;-78
2023/01/29 14:50:28;;;;;;;;;;;10.40;99.90;;;;;;5095841;28;19908;-78
2023/01/29 14:53:03;;;;;;;;;;;10.40;99.90;;;;;;5094321;28;19912;-79
2023/01/29 14:55:34;;;;;;;;;;;10.40;99.90;;;;;;5095793;28;19912;-78
2023/01/29 14:58:00;;;;;;;;;;;10.40;99.90;;;;;;5094487;28;20226;-77
2023/01/29 15:00:28;;;;;;;;;;;10.40;99.90;;;;;;5093381;28;19922;-77
2023/01/29 15:02:57;;;;;;;;;;;10.40;99.90;;;;;;5094882;28;19964;-78
2023/01/29 15:05:28;;;;;;;;;;;10.30;99.90;;;;;;5095134;28;20029;-77